Time;durP1;ratioP1;P1;durP2;ratioP2;P2;SDS_P1;SDS_P2;PMS_P1;PMS_P2;Temp;Humidity;BMP_temperature;BMP_pressure;BME280_temperature;BME280_humidity;BME280_pressure;Samples;Min_cycle;Max_cycle;Signal;HPM_P1;HPM_P2
2023/10/23 00:01:08;;;;;;;3.87;2.50;;;7.10;38.40;;;;;;5058552;28;20190;-69
2023/10/23 00:03:34;;;;;;;2.77;1.70;;;7.00;39.30;;;;;;5058319;28;20202;-69
2023/10/23 00:05:59;;;;;;;6.60;1.80;;;6.90;39.70;;;;;;5058453;28;20535;-69
2023/10/23 00:08:25;;;;;;;2.80;1.70;;;6.90;39.70;;;;;;5057920;28;20192;-69
2023/10/23 00:10:51;;;;;;;7.43;2.23;;;6.90;39.70;;;;;;5058324;28;20193;-69
2023/10/23 00:13:16;;;;;;;5.60;1.60;;;6.80;40.40;;;;;;5058202;28;20224;-69
2023/10/23 00:15:42;;;;;;;4.47;1.83;;;6.80;40.70;;;;;;5058149;28;20221;-70
2023/10/23 00:18:08;;;;;;;7.37;2.43;;;6.70;40.80;;;;;;5057881;28;20220;-69
2023/10/23 00:20:33;;;;;;;4.60;2.43;;;6.70;41.70;;;;;;5057909;28;20432;-69
2023/10/23 00:22:59;;;;;;;4.80;2.50;;;6.70;41.40;;;;;;5058072;28;20226;-69
2023/10/23 00:25:24;;;;;;;3.47;1.87;;;6.60;41.80;;;;;;5058094;28;20250;-69
2023/10/23 00:27:50;;;;;;;9.87;2.40;;;6.60;42.90;;;;;;5056476;28;20660;-69
2023/10/23 00:30:15;;;;;;;3.00;1.83;;;6.60;43.30;;;;;;5057877;28;20202;-70
2023/10/23 00:32:41;;;;;;;4.20;2.00;;;6.50;43.80;;;;;;5058155;28;20189;-69
2023/10/23 00:35:07;;;;;;;4.13;2.00;;;6.50;45.00;;;;;;5058072;28;20261;-69
2023/10/23 00:37:34;;;;;;;5.10;2.30;;;6.50;44.50;;;;;;5057776;28;20182;-69
2023/10/23 00:40:00;;;;;;;4.90;2.20;;;6.50;44.80;;;;;;5057976;28;20198;-69
2023/10/23 00:42:25;;;;;;;3.60;1.70;;;6.40;43.10;;;;;;5057714;28;20959;-69
2023/10/23 00:44:51;;;;;;;2.97;1.40;;;6.40;44.90;;;;;;5057791;28;20171;-69
2023/10/23 00:47:18;;;;;;;5.10;2.20;;;6.40;44.10;;;;;;5057689;28;20178;-69
2023/10/23 00:49:44;;;;;;;3.37;1.67;;;6.40;43.00;;;;;;5057408;28;20197;-69
2023/10/23 00:52:10;;;;;;;4.63;1.70;;;6.40;42.00;;;;;;5058064;28;20983;-69
2023/10/23 00:54:37;;;;;;;3.70;1.60;;;6.40;42.60;;;;;;5057699;28;20545;-69
2023/10/23 00:57:03;;;;;;;3.10;1.53;;;6.30;43.40;;;;;;5057795;28;20432;-69
2023/10/23 00:59:29;;;;;;;3.13;1.30;;;6.30;44.50;;;;;;5057551;28;20442;-69
2023/10/23 01:01:56;;;;;;;4.43;2.30;;;6.30;44.00;;;;;;5057773;28;20435;-68
2023/10/23 01:04:22;;;;;;;3.80;1.60;;;6.30;44.50;;;;;;5057677;28;20487;-68
2023/10/23 01:06:49;;;;;;;3.40;1.97;;;6.30;43.50;;;;;;5056551;28;20908;-68
2023/10/23 01:09:16;;;;;;;2.67;1.23;;;6.30;44.30;;;;;;5054639;28;20460;-68
2023/10/23 01:11:42;;;;;;;4.00;2.33;;;6.20;45.00;;;;;;5054504;28;20495;-68
2023/10/23 01:14:07;;;;;;;3.87;1.30;;;6.20;44.80;;;;;;5054277;28;20448;-68
2023/10/23 01:16:33;;;;;;;2.80;1.50;;;6.20;44.50;;;;;;5054500;28;20211;-69
2023/10/23 01:18:58;;;;;;;3.37;2.17;;;6.10;44.70;;;;;;5054041;28;20221;-69
2023/10/23 01:21:24;;;;;;;11.70;2.23;;;6.10;45.30;;;;;;5053383;28;20186;-68
2023/10/23 01:23:50;;;;;;;4.00;1.90;;;6.20;44.60;;;;;;5054360;28;20214;-69
2023/10/23 01:26:16;;;;;;;4.17;1.50;;;6.20;44.00;;;;;;5052926;28;20235;-69
2023/10/23 01:28:41;;;;;;;8.13;2.10;;;6.10;44.50;;;;;;5053928;28;20441;-69
2023/10/23 01:31:07;;;;;;;5.50;2.30;;;6.10;45.20;;;;;;5054028;28;20171;-69
2023/10/23 01:33:34;;;;;;;3.50;1.43;;;6.00;44.70;;;;;;5054205;28;20256;-69
2023/10/23 01:36:00;;;;;;;3.30;1.60;;;6.00;46.00;;;;;;5053025;28;20190;-70
2023/10/23 01:38:25;;;;;;;2.60;1.50;;;6.00;46.40;;;;;;5053873;28;20448;-69
2023/10/23 01:40:51;;;;;;;5.90;2.60;;;5.90;46.30;;;;;;5054292;28;20179;-69
2023/10/23 01:43:16;;;;;;;4.70;2.53;;;5.90;46.70;;;;;;5054105;28;20237;-69
2023/10/23 01:45:42;;;;;;;4.70;1.80;;;5.90;47.20;;;;;;5054085;28;20649;-70
2023/10/23 01:48:07;;;;;;;5.10;2.00;;;5.90;47.50;;;;;;5053961;28;20189;-69
2023/10/23 01:50:33;;;;;;;4.80;1.80;;;5.80;47.60;;;;;;5054385;28;20668;-69
2023/10/23 01:52:58;;;;;;;3.70;1.63;;;5.80;47.00;;;;;;5054026;28;20544;-69
2023/10/23 01:55:24;;;;;;;3.50;1.47;;;5.70;48.60;;;;;;5053879;28;20594;-69
2023/10/23 01:57:49;;;;;;;6.53;2.07;;;5.70;48.70;;;;;;5053642;28;20253;-68
2023/10/23 02:00:15;;;;;;;3.13;1.93;;;5.70;48.70;;;;;;5053600;28;20286;-69
2023/10/23 02:02:41;;;;;;;4.40;1.80;;;5.70;48.70;;;;;;5053599;28;20205;-69
2023/10/23 02:05:07;;;;;;;2.63;1.50;;;5.70;48.50;;;;;;5053499;28;20194;-69
2023/10/23 02:07:32;;;;;;;9.83;1.63;;;5.70;48.70;;;;;;5053392;28;20182;-69
2023/10/23 02:09:58;;;;;;;2.77;1.60;;;5.70;48.80;;;;;;5053352;28;20194;-69
2023/10/23 02:12:24;;;;;;;6.40;1.80;;;5.60;48.70;;;;;;5053418;28;20216;-69
2023/10/23 02:14:52;;;;;;;8.13;2.20;;;5.60;48.70;;;;;;5053228;28;20178;-69
2023/10/23 02:17:19;;;;;;;3.77;2.27;;;5.50;49.30;;;;;;5053323;28;20439;-68
2023/10/23 02:19:45;;;;;;;3.20;1.60;;;5.50;49.80;;;;;;5064988;22;20488;-68
2023/10/23 02:22:11;;;;;;;13.33;2.17;;;5.50;49.30;;;;;;5035166;28;20410;-68
2023/10/23 02:24:37;;;;;;;4.40;2.77;;;5.50;50.10;;;;;;5034929;28;20461;-68
2023/10/23 02:27:02;;;;;;;4.37;2.13;;;5.50;49.70;;;;;;5033659;28;20789;-68
2023/10/23 02:29:28;;;;;;;5.97;2.27;;;5.40;50.10;;;;;;5033272;28;20199;-67
2023/10/23 02:31:55;;;;;;;4.07;2.43;;;5.40;51.00;;;;;;5034976;28;20409;-68
2023/10/23 02:34:21;;;;;;;6.20;2.63;;;5.40;50.80;;;;;;5034535;28;20466;-68
2023/10/23 02:36:46;;;;;;;4.40;2.27;;;5.40;50.00;;;;;;5034119;28;20503;-68
2023/10/23 02:39:12;;;;;;;3.57;2.10;;;5.30;50.10;;;;;;5033078;28;20509;-68
2023/10/23 02:41:38;;;;;;;3.70;2.00;;;5.30;50.20;;;;;;5031818;28;20312;-68
2023/10/23 02:44:04;;;;;;;2.47;1.80;;;5.30;50.50;;;;;;5032934;28;20289;-68
2023/10/23 02:46:31;;;;;;;6.27;2.30;;;5.30;51.10;;;;;;5033115;28;20543;-68
2023/10/23 02:48:57;;;;;;;3.10;1.90;;;5.30;51.60;;;;;;5032802;28;20433;-68
2023/10/23 02:51:23;;;;;;;2.63;1.77;;;5.30;51.70;;;;;;5032935;28;20443;-68
2023/10/23 02:53:49;;;;;;;3.10;2.37;;;5.30;50.50;;;;;;5031582;28;20959;-68
2023/10/23 02:56:14;;;;;;;4.30;1.90;;;5.30;50.90;;;;;;5032673;28;20174;-68
2023/10/23 02:58:40;;;;;;;3.03;2.30;;;5.20;50.50;;;;;;5031079;28;20482;-68
2023/10/23 03:01:16;;;;;;;3.10;1.80;;;5.20;51.10;;;;;;5032823;28;20170;-68
2023/10/23 03:03:43;;;;;;;4.03;2.50;;;5.10;51.20;;;;;;5032735;28;20206;-68
2023/10/23 03:06:09;;;;;;;4.13;3.73;;;5.10;52.30;;;;;;5033177;28;20418;-68
2023/10/23 03:08:34;;;;;;;3.90;2.00;;;5.10;51.70;;;;;;5031520;28;20486;-68
2023/10/23 03:11:00;;;;;;;4.50;2.37;;;5.10;51.80;;;;;;5033010;28;20425;-68
2023/10/23 03:13:26;;;;;;;3.90;2.50;;;5.10;50.00;;;;;;5032954;28;20185;-68
2023/10/23 03:15:52;;;;;;;3.97;2.70;;;5.00;51.20;;;;;;5032997;28;20553;-68
2023/10/23 03:18:18;;;;;;;4.40;1.73;;;5.00;50.80;;;;;;5032496;28;20185;-68
2023/10/23 03:20:43;;;;;;;2.80;2.10;;;5.00;51.80;;;;;;5033054;28;20847;-68
2023/10/23 03:23:09;;;;;;;6.97;2.77;;;5.00;51.60;;;;;;5031369;28;20600;-68
2023/10/23 03:25:37;;;;;;;4.30;2.40;;;5.00;51.30;;;;;;5032629;28;20188;-68
2023/10/23 03:28:03;;;;;;;3.97;2.57;;;5.00;51.70;;;;;;5032379;28;20184;-68
2023/10/23 03:30:28;;;;;;;3.17;1.67;;;4.90;51.70;;;;;;5032589;28;20432;-68
2023/10/23 03:32:54;;;;;;;4.80;2.07;;;4.90;52.00;;;;;;5031829;28;20237;-68
2023/10/23 03:35:19;;;;;;;4.20;3.07;;;4.90;52.10;;;;;;5032678;28;20503;-68
2023/10/23 03:37:45;;;;;;;3.23;2.37;;;4.90;51.40;;;;;;5032434;28;20182;-70
2023/10/23 03:40:11;;;;;;;5.53;2.50;;;4.90;51.40;;;;;;5032419;28;20871;-68
2023/10/23 03:42:37;;;;;;;3.63;2.30;;;4.80;51.50;;;;;;5032183;28;20183;-68
2023/10/23 03:45:06;;;;;;;4.70;1.70;;;4.80;51.60;;;;;;5032432;28;20416;-68
2023/10/23 03:47:31;;;;;;;2.80;1.75;;;4.80;53.20;;;;;;5032145;28;20174;-68
2023/10/23 03:49:57;;;;;;;3.70;2.80;;;4.80;52.30;;;;;;5032308;28;20204;-68
2023/10/23 03:52:22;;;;;;;8.10;2.40;;;4.70;51.90;;;;;;5032322;28;20212;-68
2023/10/23 03:54:48;;;;;;;4.03;2.17;;;4.70;52.70;;;;;;5032128;28;20208;-68
2023/10/23 03:57:13;;;;;;;3.73;2.57;;;4.70;52.30;;;;;;5032136;28;20189;-68
2023/10/23 03:59:43;;;;;;;3.10;2.43;;;4.70;52.40;;;;;;5032121;28;20209;-68
2023/10/23 04:02:08;;;;;;;3.30;2.20;;;4.70;52.20;;;;;;5033257;28;20212;-68
2023/10/23 04:04:34;;;;;;;4.60;2.70;;;4.70;52.20;;;;;;5033335;28;20853;-68
2023/10/23 04:06:59;;;;;;;2.60;2.07;;;4.70;52.00;;;;;;5033935;28;20178;-68
2023/10/23 04:09:29;;;;;;;3.90;2.13;;;4.70;52.10;;;;;;5033163;28;20202;-68
2023/10/23 04:11:55;;;;;;;5.37;2.37;;;4.70;52.60;;;;;;5033170;28;20188;-68
2023/10/23 04:14:20;;;;;;;3.43;1.70;;;4.70;53.40;;;;;;5033189;28;20416;-68
2023/10/23 04:16:46;;;;;;;4.10;2.50;;;4.70;53.20;;;;;;5033257;28;20193;-68
2023/10/23 04:19:11;;;;;;;3.90;2.07;;;4.70;52.70;;;;;;5032581;28;20252;-68
2023/10/23 04:21:39;;;;;;;3.10;1.70;;;4.60;53.60;;;;;;5032231;28;20200;-69
2023/10/23 04:24:06;;;;;;;4.05;2.00;;;4.60;52.40;;;;;;5033250;28;20195;-68
2023/10/23 04:26:31;;;;;;;3.63;1.70;;;4.70;52.00;;;;;;5033301;28;20176;-68
2023/10/23 04:28:57;;;;;;;4.67;2.23;;;4.60;51.00;;;;;;5032553;28;20938;-67
2023/10/23 04:31:22;;;;;;;4.03;3.63;;;4.70;51.80;;;;;;5033051;28;20186;-68
2023/10/23 04:33:48;;;;;;;5.30;2.10;;;4.60;51.90;;;;;;5033371;28;20662;-68
2023/10/23 04:36:13;;;;;;;3.40;2.03;;;4.60;51.40;;;;;;5033023;28;20178;-68
2023/10/23 04:38:39;;;;;;;3.07;2.37;;;4.60;52.10;;;;;;5032716;28;20177;-68
2023/10/23 04:41:04;;;;;;;3.47;2.03;;;4.60;50.90;;;;;;5032712;28;20189;-68
2023/10/23 04:43:30;;;;;;;2.27;1.60;;;4.50;50.60;;;;;;5031480;28;20215;-67
2023/10/23 04:45:56;;;;;;;2.57;1.50;;;4.50;52.00;;;;;;5037067;28;20174;-68
2023/10/23 04:48:22;;;;;;;6.45;1.85;;;4.50;50.80;;;;;;5036880;28;20636;-68
2023/10/23 04:50:48;;;;;;;5.93;2.00;;;4.50;50.80;;;;;;5037090;28;20205;-68
2023/10/23 04:53:13;;;;;;;3.83;2.60;;;4.50;50.60;;;;;;5037061;28;20274;-68
2023/10/23 04:55:40;;;;;;;3.70;1.93;;;4.50;51.00;;;;;;5036862;28;20176;-67
2023/10/23 04:58:07;;;;;;;3.00;2.20;;;4.40;50.40;;;;;;5036453;28;20223;-68
2023/10/23 05:00:37;;;;;;;2.30;1.60;;;4.40;49.90;;;;;;5035528;28;20204;-68
2023/10/23 05:03:06;;;;;;;4.60;2.08;;;4.50;51.60;;;;;;5036654;28;20294;-67
2023/10/23 05:05:32;;;;;;;10.23;2.15;;;4.50;51.00;;;;;;5036627;28;20178;-68
2023/10/23 05:07:58;;;;;;;4.55;1.92;;;4.50;50.40;;;;;;5036333;28;20173;-68
2023/10/23 05:10:23;;;;;;;4.47;2.47;;;4.50;50.50;;;;;;5036446;28;20197;-68
2023/10/23 05:12:49;;;;;;;4.53;2.17;;;4.50;51.30;;;;;;5036510;28;20277;-68
2023/10/23 05:15:16;;;;;;;6.00;2.33;;;4.50;50.50;;;;;;5037174;28;20171;-69
2023/10/23 05:17:41;;;;;;;3.00;2.40;;;4.50;51.10;;;;;;5038063;28;20760;-68
2023/10/23 05:20:08;;;;;;;3.83;2.50;;;4.50;51.20;;;;;;5038211;28;20265;-68
2023/10/23 05:22:34;;;;;;;3.67;2.47;;;4.50;51.40;;;;;;5038612;28;20236;-68
2023/10/23 05:25:00;;;;;;;3.87;2.10;;;4.40;51.20;;;;;;5038554;28;20181;-68
2023/10/23 05:27:26;;;;;;;2.70;2.27;;;4.40;52.00;;;;;;5037916;28;20292;-68
2023/10/23 05:29:51;;;;;;;5.10;2.73;;;4.40;52.60;;;;;;5037921;28;20619;-68
2023/10/23 05:32:17;;;;;;;5.37;2.70;;;4.50;52.30;;;;;;5037517;28;20267;-68
2023/10/23 05:34:46;;;;;;;6.20;2.37;;;4.50;53.00;;;;;;5035345;28;20738;-68
2023/10/23 05:37:12;;;;;;;3.53;2.33;;;4.40;52.60;;;;;;5037203;28;20178;-68
2023/10/23 05:39:38;;;;;;;3.60;2.83;;;4.40;52.10;;;;;;5037449;28;20759;-68
2023/10/23 05:42:04;;;;;;;3.97;2.53;;;4.40;53.30;;;;;;5037213;28;20412;-67
2023/10/23 05:44:30;;;;;;;8.32;2.70;;;4.40;52.70;;;;;;5035357;28;20986;-68
2023/10/23 05:46:55;;;;;;;3.60;2.57;;;4.30;52.10;;;;;;5035747;28;20181;-70
2023/10/23 05:49:21;;;;;;;2.83;1.97;;;4.30;52.60;;;;;;5036917;28;20229;-68
2023/10/23 05:51:47;;;;;;;3.70;2.47;;;4.30;53.50;;;;;;5037329;28;20174;-68
2023/10/23 05:54:13;;;;;;;5.70;2.13;;;4.30;53.30;;;;;;5037338;28;20191;-68
2023/10/23 05:56:38;;;;;;;4.70;3.03;;;4.30;53.70;;;;;;5035587;28;20462;-68
2023/10/23 05:59:04;;;;;;;5.50;2.30;;;4.30;53.70;;;;;;5035278;28;20206;-68
2023/10/23 06:01:30;;;;;;;3.93;2.40;;;4.30;53.90;;;;;;5035834;28;20205;-67
2023/10/23 06:03:56;;;;;;;4.70;2.30;;;4.30;54.70;;;;;;5033983;28;20206;-67
2023/10/23 06:06:21;;;;;;;4.80;3.20;;;4.40;54.90;;;;;;5035432;28;20588;-68
2023/10/23 06:08:47;;;;;;;4.20;2.87;;;4.40;54.70;;;;;;5035324;28;20668;-67
2023/10/23 06:11:13;;;;;;;5.53;3.77;;;4.50;53.90;;;;;;5035379;28;20186;-67
2023/10/23 06:13:39;;;;;;;4.50;2.67;;;4.50;54.50;;;;;;5033861;28;20180;-68
2023/10/23 06:16:06;;;;;;;4.70;3.03;;;4.50;51.90;;;;;;5035185;28;20426;-68
2023/10/23 06:18:32;;;;;;;4.40;3.33;;;4.50;52.40;;;;;;5033470;28;20186;-68
2023/10/23 06:21:00;;;;;;;8.20;2.80;;;4.60;49.10;;;;;;5035335;28;20493;-68
2023/10/23 06:23:25;;;;;;;5.70;3.25;;;4.70;52.10;;;;;;5034918;28;20457;-67
2023/10/23 06:25:55;;;;;;;6.67;3.13;;;4.70;57.50;;;;;;5034974;28;20514;-67
2023/10/23 06:28:20;;;;;;;3.88;2.55;;;4.80;66.50;;;;;;5034486;28;20617;-68
2023/10/23 06:30:46;;;;;;;5.50;2.43;;;4.80;74.90;;;;;;5033907;28;20274;-68
2023/10/23 06:33:11;;;;;;;4.47;2.93;;;5.00;55.30;;;;;;5035035;28;20333;-68
2023/10/23 06:35:37;;;;;;;4.03;3.43;;;5.10;48.20;;;;;;5033641;28;20203;-69
2023/10/23 06:38:04;;;;;;;4.63;3.27;;;5.30;71.10;;;;;;5034388;28;20197;-69
2023/10/23 06:40:29;;;;;;;21.27;4.67;;;5.40;69.70;;;;;;5034690;28;20187;-69
2023/10/23 06:42:55;;;;;;;5.87;4.80;;;5.50;70.80;;;;;;5034421;28;20453;-68
2023/10/23 06:45:20;;;;;;;8.27;6.43;;;5.60;71.00;;;;;;5033341;28;20186;-68
2023/10/23 06:47:49;;;;;;;5.87;4.57;;;5.70;72.40;;;;;;5034627;28;20576;-68
2023/10/23 06:50:15;;;;;;;8.93;5.93;;;5.80;55.90;;;;;;5033882;28;20209;-69
2023/10/23 06:52:42;;;;;;;10.33;5.90;;;5.90;56.50;;;;;;5034577;28;20939;-69
2023/10/23 06:55:08;;;;;;;12.50;6.73;;;6.00;53.40;;;;;;5034575;28;20815;-69
2023/10/23 06:57:34;;;;;;;7.87;5.50;;;6.10;51.00;;;;;;5034244;28;20441;-69
2023/10/23 06:59:59;;;;;;;8.67;5.73;;;6.10;51.80;;;;;;5032790;28;20492;-69
2023/10/23 07:02:25;;;;;;;7.80;5.30;;;6.20;52.10;;;;;;5034713;28;20167;-69
2023/10/23 07:04:50;;;;;;;9.87;5.77;;;6.20;49.60;;;;;;5034439;28;20631;-69
2023/10/23 07:07:16;;;;;;;6.37;5.60;;;6.30;49.60;;;;;;5033888;28;20183;-68
2023/10/23 07:09:42;;;;;;;7.67;5.87;;;6.30;49.90;;;;;;5034136;28;20272;-68
2023/10/23 07:12:07;;;;;;;11.83;6.20;;;6.30;49.20;;;;;;5032877;28;20179;-68
2023/10/23 07:14:33;;;;;;;9.07;5.90;;;6.40;51.00;;;;;;5033625;28;20179;-69
2023/10/23 07:16:58;;;;;;;9.40;7.20;;;6.60;50.80;;;;;;5033787;28;20179;-68
2023/10/23 07:19:24;;;;;;;11.13;5.50;;;6.70;49.50;;;;;;5033729;28;20713;-68
2023/10/23 07:21:50;;;;;;;11.00;7.40;;;6.90;49.70;;;;;;5033983;28;20669;-69
2023/10/23 07:24:15;;;;;;;9.53;6.50;;;6.80;48.20;;;;;;5033746;28;20207;-69
2023/10/23 07:26:41;;;;;;;13.20;6.60;;;6.90;46.90;;;;;;5033548;28;20175;-69
2023/10/23 07:29:06;;;;;;;9.43;6.07;;;6.90;45.60;;;;;;5033634;28;20206;-68
2023/10/23 07:31:32;;;;;;;7.17;4.20;;;6.90;44.90;;;;;;5032451;28;20190;-68
2023/10/23 07:33:57;;;;;;;8.77;6.53;;;7.00;43.70;;;;;;5033813;28;20175;-68
2023/10/23 07:36:23;;;;;;;9.90;6.93;;;7.10;38.30;;;;;;5033892;28;20178;-68
2023/10/23 07:38:49;;;;;;;8.37;6.93;;;7.10;35.80;;;;;;5033412;28;20195;-68
2023/10/23 07:41:15;;;;;;;6.33;5.67;;;7.20;34.80;;;;;;5033578;28;20841;-69
2023/10/23 07:43:41;;;;;;;13.60;6.23;;;7.20;34.70;;;;;;5033546;28;20207;-68
2023/10/23 07:46:08;;;;;;;7.43;5.80;;;7.20;29.90;;;;;;5033157;28;20172;-68
2023/10/23 07:48:34;;;;;;;8.70;7.20;;;7.30;29.80;;;;;;5033516;28;20752;-69
2023/10/23 07:51:01;;;;;;;7.80;5.23;;;7.40;28.40;;;;;;5033358;28;20462;-68
2023/10/23 07:53:30;;;;;;;13.17;6.30;;;7.60;27.50;;;;;;5033507;28;20179;-68
2023/10/23 07:55:55;;;;;;;5.23;4.27;;;7.70;25.70;;;;;;5033508;28;20980;-68
2023/10/23 07:58:22;;;;;;;7.00;5.50;;;7.90;25.60;;;;;;5033350;28;20421;-69
2023/10/23 08:00:51;;;;;;;6.83;5.10;;;8.10;24.20;;;;;;5031588;28;20681;-69
2023/10/23 08:03:17;;;;;;;9.90;5.27;;;8.00;22.00;;;;;;5033311;28;20462;-68
2023/10/23 08:05:42;;;;;;;6.73;5.87;;;8.20;23.30;;;;;;5033211;28;20429;-68
2023/10/23 08:08:08;;;;;;;7.43;5.80;;;8.10;20.30;;;;;;5032953;28;20207;-68
2023/10/23 08:10:33;;;;;;;8.27;5.17;;;8.20;20.40;;;;;;5033246;28;20193;-68
2023/10/23 08:12:59;;;;;;;5.40;4.33;;;8.40;19.30;;;;;;5032979;28;20256;-68
2023/10/23 08:15:24;;;;;;;6.63;4.27;;;8.60;18.20;;;;;;5032955;28;20198;-68
2023/10/23 08:17:50;;;;;;;7.97;5.00;;;8.70;17.30;;;;;;5033617;28;20177;-68
2023/10/23 08:20:17;;;;;;;11.70;5.00;;;8.60;18.20;;;;;;5036530;28;20221;-69
2023/10/23 08:22:42;;;;;;;5.73;4.43;;;8.80;18.30;;;;;;5037740;28;20182;-69
2023/10/23 08:25:08;;;;;;;7.37;4.33;;;8.80;17.00;;;;;;5036916;28;20923;-69
2023/10/23 08:27:34;;;;;;;6.90;4.77;;;8.90;16.90;;;;;;5036211;28;20602;-69
2023/10/23 08:29:59;;;;;;;4.83;4.13;;;8.90;16.50;;;;;;5036335;28;20202;-69
2023/10/23 08:32:25;;;;;;;9.67;3.97;;;9.20;18.10;;;;;;5036435;28;20170;-67
2023/10/23 08:34:53;;;;;;;6.90;4.30;;;9.40;16.30;;;;;;5035770;28;20655;-68
2023/10/23 08:37:19;;;;;;;9.10;4.47;;;9.50;16.20;;;;;;5036326;28;20713;-68
2023/10/23 08:39:44;;;;;;;5.53;4.20;;;9.50;15.80;;;;;;5036031;28;20447;-68
2023/10/23 08:42:10;;;;;;;5.03;4.10;;;9.60;16.70;;;;;;5035805;28;20420;-68
2023/10/23 08:44:36;;;;;;;8.17;4.30;;;9.80;15.50;;;;;;5035799;28;20279;-68
2023/10/23 08:47:02;;;;;;;7.40;4.60;;;10.00;14.20;;;;;;5036154;28;20422;-69
2023/10/23 08:49:29;;;;;;;8.17;3.90;;;10.00;14.40;;;;;;5034438;28;20247;-68
2023/10/23 08:51:58;;;;;;;4.50;4.00;;;10.10;14.20;;;;;;5035635;28;20786;-69
2023/10/23 08:54:24;;;;;;;5.00;3.60;;;10.00;14.10;;;;;;5035487;28;20422;-69
2023/10/23 08:56:58;;;;;;;5.43;3.83;;;10.10;15.60;;;;;;5035466;28;20424;-68
2023/10/23 08:59:24;;;;;;;5.13;3.90;;;9.90;15.80;;;;;;5035083;28;20437;-68
2023/10/23 09:01:50;;;;;;;12.40;4.10;;;10.00;15.60;;;;;;5035626;28;20930;-68
2023/10/23 09:04:15;;;;;;;11.93;4.20;;;9.80;17.60;;;;;;5034272;28;20215;-68
2023/10/23 09:06:42;;;;;;;5.67;4.13;;;9.80;18.20;;;;;;5035359;28;20432;-68
2023/10/23 09:09:08;;;;;;;8.53;4.50;;;9.80;18.90;;;;;;5035264;28;20190;-68
2023/10/23 09:11:45;;;;;;;6.70;4.13;;;9.70;18.80;;;;;;5034106;28;20513;-68
2023/10/23 09:14:25;;;;;;;8.23;4.37;;;9.80;19.60;;;;;;5034116;28;20425;-68
2023/10/23 09:16:52;;;;;;;5.17;4.03;;;9.90;18.80;;;;;;5035408;28;20421;-68
2023/10/23 09:19:34;;;;;;;5.63;3.60;;;9.80;20.20;;;;;;5034392;28;20458;-68
2023/10/23 09:22:00;;;;;;;7.07;4.70;;;9.90;19.50;;;;;;5035054;28;20421;-69
2023/10/23 09:24:26;;;;;;;7.70;4.50;;;10.10;18.40;;;;;;5034904;28;20464;-69
2023/10/23 09:26:52;;;;;;;5.73;4.30;;;10.20;16.80;;;;;;5035163;28;20440;-69
2023/10/23 09:29:25;;;;;;;6.43;5.00;;;10.30;16.80;;;;;;5033948;28;20438;-68
2023/10/23 09:31:52;;;;;;;6.20;4.60;;;10.50;16.80;;;;;;5035038;28;20229;-68
2023/10/23 09:34:18;;;;;;;8.27;4.70;;;10.40;16.10;;;;;;5033545;28;20792;-69
2023/10/23 09:36:45;;;;;;;4.57;3.40;;;10.50;16.20;;;;;;5035004;28;20410;-69
2023/10/23 09:39:11;;;;;;;4.40;4.00;;;10.80;17.70;;;;;;5034525;28;20198;-68
2023/10/23 09:41:37;;;;;;;6.43;4.60;;;11.00;21.90;;;;;;5034771;28;20921;-69
2023/10/23 09:44:04;;;;;;;7.90;4.60;;;11.10;20.30;;;;;;5034553;28;20207;-69
2023/10/23 09:46:31;;;;;;;5.03;3.67;;;11.20;20.00;;;;;;5034807;28;20421;-69
2023/10/23 09:49:00;;;;;;;8.00;4.07;;;11.30;19.80;;;;;;5034245;28;20430;-69
2023/10/23 09:51:36;;;;;;;8.10;5.00;;;11.50;19.20;;;;;;5033375;28;20425;-68
2023/10/23 09:54:07;;;;;;;7.70;5.13;;;11.60;18.70;;;;;;5034874;28;20776;-68
2023/10/23 09:56:34;;;;;;;8.20;4.90;;;11.70;18.70;;;;;;5034341;28;20407;-68
2023/10/23 09:59:04;;;;;;;5.77;4.03;;;11.80;18.60;;;;;;5034086;28;20449;-69
2023/10/23 10:01:42;;;;;;;8.13;4.60;;;11.60;19.70;;;;;;5033005;28;20484;-68
2023/10/23 10:04:13;;;;;;;6.63;4.60;;;11.90;18.70;;;;;;5034322;28;20466;-68
2023/10/23 10:06:44;;;;;;;5.73;3.70;;;12.00;18.50;;;;;;5034424;28;20445;-69
2023/10/23 10:09:12;;;;;;;6.97;4.30;;;11.80;19.40;;;;;;5034029;28;20521;-68
2023/10/23 10:11:43;;;;;;;8.13;5.27;;;12.10;20.90;;;;;;5033790;28;20422;-68
2023/10/23 10:14:09;;;;;;;6.77;4.33;;;12.20;18.10;;;;;;5033920;28;20451;-69
2023/10/23 10:16:36;;;;;;;6.47;4.33;;;12.20;18.30;;;;;;5034025;28;20502;-68
2023/10/23 10:19:04;;;;;;;6.17;4.60;;;12.40;17.00;;;;;;5033395;28;20462;-68
2023/10/23 10:21:32;;;;;;;7.67;5.53;;;12.40;17.80;;;;;;5034351;28;20430;-68
2023/10/23 10:24:00;;;;;;;6.90;4.90;;;12.20;18.20;;;;;;5034070;28;20552;-68
2023/10/23 10:26:26;;;;;;;6.77;4.07;;;12.60;17.00;;;;;;5033607;28;20444;-68
2023/10/23 10:28:52;;;;;;;4.90;4.17;;;12.70;17.20;;;;;;5032292;28;20525;-68
2023/10/23 10:31:21;;;;;;;5.20;4.47;;;12.90;17.90;;;;;;5033679;28;20423;-69
2023/10/23 10:33:46;;;;;;;6.20;4.37;;;13.10;16.60;;;;;;5033704;28;20505;-68
2023/10/23 10:36:15;;;;;;;6.60;4.50;;;13.20;17.00;;;;;;5033610;28;20503;-70
2023/10/23 10:38:41;;;;;;;5.70;4.20;;;13.40;16.40;;;;;;5031958;28;20179;-69
2023/10/23 10:41:17;;;;;;;6.23;4.60;;;13.50;16.50;;;;;;5033120;28;20851;-68
2023/10/23 10:43:43;;;;;;;4.53;3.97;;;13.60;15.00;;;;;;5033580;28;20458;-68
2023/10/23 10:46:19;;;;;;;9.07;5.23;;;13.50;15.90;;;;;;5033501;28;20420;-68
2023/10/23 10:48:46;;;;;;;12.73;4.13;;;13.50;16.50;;;;;;5034174;28;20444;-69
2023/10/23 10:51:15;;;;;;;5.03;4.27;;;13.30;16.30;;;;;;5032439;28;20850;-68
2023/10/23 10:53:41;;;;;;;8.00;4.33;;;13.10;17.40;;;;;;5033281;28;20469;-69
2023/10/23 10:56:08;;;;;;;8.70;5.40;;;13.30;16.30;;;;;;5033456;28;20479;-69
2023/10/23 10:58:36;;;;;;;5.83;4.77;;;13.30;17.60;;;;;;5032841;28;20444;-68
2023/10/23 11:01:03;;;;;;;11.40;5.20;;;13.40;16.40;;;;;;5033036;28;20490;-68
2023/10/23 11:03:32;;;;;;;4.90;3.40;;;13.60;16.50;;;;;;5031497;28;20512;-68
2023/10/23 11:05:57;;;;;;;6.53;4.07;;;13.60;16.50;;;;;;5033206;28;20439;-68
2023/10/23 11:08:23;;;;;;;3.27;2.70;;;13.60;16.50;;;;;;5032432;28;20413;-69
2023/10/23 11:10:48;;;;;;;7.67;4.20;;;13.50;16.50;;;;;;5032683;28;20199;-68
2023/10/23 11:13:15;;;;;;;8.50;4.73;;;13.60;16.90;;;;;;5032352;28;20191;-68
2023/10/23 11:15:45;;;;;;;7.17;4.00;;;13.70;16.60;;;;;;5032444;28;20190;-68
2023/10/23 11:18:10;;;;;;;7.90;4.03;;;13.50;16.90;;;;;;5032861;28;20940;-69
2023/10/23 11:20:36;;;;;;;4.87;4.13;;;13.60;17.00;;;;;;5032363;28;20488;-68
2023/10/23 11:23:02;;;;;;;7.33;4.30;;;13.70;16.60;;;;;;5032694;28;20616;-68
2023/10/23 11:25:28;;;;;;;6.87;4.37;;;13.70;16.60;;;;;;5032642;28;20182;-69
2023/10/23 11:27:54;;;;;;;5.53;4.17;;;13.80;16.70;;;;;;5032415;28;20437;-68
2023/10/23 11:30:24;;;;;;;7.30;4.90;;;13.90;16.70;;;;;;5032451;28;20796;-68
2023/10/23 11:32:51;;;;;;;6.87;5.10;;;13.90;16.70;;;;;;5031227;28;20413;-68
2023/10/23 11:35:17;;;;;;;6.63;4.17;;;13.90;15.80;;;;;;5032339;28;20560;-69
2023/10/23 11:37:43;;;;;;;7.70;3.90;;;14.00;15.50;;;;;;5032352;28;20913;-69
2023/10/23 11:40:10;;;;;;;7.13;4.57;;;14.00;16.10;;;;;;5032181;28;20443;-68
2023/10/23 11:42:56;;;;;;;6.73;4.50;;;13.90;16.20;;;;;;5032198;28;20178;-69
2023/10/23 11:45:22;;;;;;;9.90;5.70;;;13.80;16.70;;;;;;5032254;28;20410;-69
2023/10/23 11:47:51;;;;;;;5.63;4.77;;;13.40;18.60;;;;;;5032182;28;20612;-69
2023/10/23 11:50:19;;;;;;;10.33;6.40;;;13.60;18.20;;;;;;5032392;28;20430;-68
2023/10/23 11:52:46;;;;;;;9.27;4.90;;;13.70;18.00;;;;;;5031778;28;20564;-68
2023/10/23 11:55:14;;;;;;;10.40;5.93;;;13.90;16.70;;;;;;5032296;28;21051;-68
2023/10/23 11:57:41;;;;;;;7.47;4.73;;;14.00;15.90;;;;;;5032375;28;20916;-68
2023/10/23 12:00:11;;;;;;;6.53;4.40;;;14.10;16.80;;;;;;5031926;28;20441;-68
2023/10/23 12:02:45;;;;;;;7.53;5.30;;;14.20;17.00;;;;;;5031848;28;20424;-68
2023/10/23 12:05:17;;;;;;;6.90;4.50;;;14.40;15.40;;;;;;5032149;28;20430;-68
2023/10/23 12:07:47;;;;;;;7.63;5.40;;;14.80;14.90;;;;;;5030640;28;20410;-68
2023/10/23 12:10:14;;;;;;;8.87;5.37;;;14.40;15.80;;;;;;5031884;28;20435;-68
2023/10/23 12:12:41;;;;;;;7.43;4.83;;;14.50;15.30;;;;;;5032151;28;20413;-69
2023/10/23 12:15:12;;;;;;;6.57;5.00;;;14.60;15.50;;;;;;5031611;28;20414;-69
2023/10/23 12:17:38;;;;;;;9.90;4.90;;;14.60;14.50;;;;;;5031389;28;20410;-69
2023/10/23 12:20:09;;;;;;;6.67;5.30;;;14.70;14.50;;;;;;5031377;28;20492;-69
2023/10/23 12:22:40;;;;;;;6.50;4.63;;;14.70;14.20;;;;;;5031301;28;20421;-69
2023/10/23 12:25:06;;;;;;;6.67;4.77;;;14.50;14.50;;;;;;5031449;28;20420;-69
2023/10/23 12:27:36;;;;;;;7.70;5.70;;;14.50;14.50;;;;;;5031259;28;20861;-69
2023/10/23 12:30:06;;;;;;;7.70;4.43;;;14.30;16.50;;;;;;5031265;28;20426;-69
2023/10/23 12:32:32;;;;;;;8.50;4.80;;;14.00;16.40;;;;;;5031379;28;20451;-69
2023/10/23 12:34:59;;;;;;;5.90;5.30;;;14.10;16.80;;;;;;5031500;28;20913;-69
2023/10/23 12:37:28;;;;;;;8.87;4.87;;;14.20;15.90;;;;;;5031482;28;20402;-69
2023/10/23 12:39:58;;;;;;;12.73;4.77;;;14.10;16.10;;;;;;5031359;28;20437;-69
2023/10/23 12:42:24;;;;;;;8.93;5.30;;;13.70;16.60;;;;;;5031479;28;20430;-69
2023/10/23 12:44:51;;;;;;;6.37;4.73;;;13.80;17.80;;;;;;5031462;28;20467;-69
2023/10/23 12:47:17;;;;;;;6.63;4.90;;;13.80;17.90;;;;;;5030230;28;20432;-69
2023/10/23 12:49:43;;;;;;;6.77;4.77;;;13.90;18.30;;;;;;5031250;28;20474;-69